Time;durP1;ratioP1;P1;durP2;ratioP2;P2;SDS_P1;SDS_P2;PMS_P1;PMS_P2;Temp;Humidity;BMP_temperature;BMP_pressure;BME280_temperature;BME280_humidity;BME280_pressure;Samples;Min_cycle;Max_cycle;Signal;HPM_P1;HPM_P2
2023/07/20 00:01:44;;;;;;;5.50;1.10;;;;;;;18.05;66.17;99660.66;108020;1279;22549;-79
2023/07/20 00:04:16;;;;;;;8.50;0.90;;;;;;;18.04;66.39;99660.48;107698;1277;22526;-80
2023/07/20 00:06:47;;;;;;;4.80;0.90;;;;;;;18.06;66.85;99664.59;107658;1274;22548;-80
2023/07/20 00:09:17;;;;;;;5.60;0.90;;;;;;;18.03;67.01;99670.96;107590;1276;22526;-79
2023/07/20 00:11:53;;;;;;;6.20;1.00;;;;;;;18.01;67.79;99672.13;107653;1277;22556;-79
2023/07/20 00:14:25;;;;;;;9.30;1.40;;;;;;;17.96;68.00;99672.95;107662;1271;25854;-80
2023/07/20 00:16:57;;;;;;;5.20;0.80;;;;;;;17.91;68.35;99671.66;107433;1280;25246;-79
2023/07/20 00:19:29;;;;;;;4.60;0.90;;;;;;;17.87;68.93;99685.86;107670;1274;22843;-79
2023/07/20 00:22:00;;;;;;;4.90;0.80;;;;;;;17.79;69.53;99702.80;107629;1276;25458;-79
2023/07/20 00:24:32;;;;;;;4.30;0.70;;;;;;;17.74;69.96;99704.80;107459;1270;25278;-78
2023/07/20 00:27:03;;;;;;;4.00;0.90;;;;;;;17.70;70.27;99704.86;107470;1280;22527;-78
2023/07/20 00:29:33;;;;;;;5.60;1.00;;;;;;;17.66;71.20;99716.55;107328;1274;22526;-78
2023/07/20 00:32:06;;;;;;;6.50;0.90;;;;;;;17.59;71.68;99732.23;107404;1257;25308;-79
2023/07/20 00:34:36;;;;;;;5.00;0.80;;;;;;;17.50;72.27;99738.58;109968;1280;22210;-79
2023/07/20 00:37:07;;;;;;;3.40;1.00;;;;;;;17.42;72.96;99738.64;109989;1274;22226;-78
2023/07/20 00:39:38;;;;;;;5.00;0.90;;;;;;;17.33;73.19;99729.91;109989;1274;22194;-79
2023/07/20 00:42:09;;;;;;;4.50;1.00;;;;;;;17.27;73.54;99726.07;109987;1280;23123;-77
2023/07/20 00:44:40;;;;;;;6.70;1.20;;;;;;;17.23;74.20;99723.00;109955;1280;22429;-79
2023/07/20 00:47:11;;;;;;;4.80;1.00;;;;;;;17.18;74.44;99720.21;109982;1273;22589;-79
2023/07/20 00:49:42;;;;;;;5.20;0.80;;;;;;;17.13;74.92;99726.13;109995;1274;22175;-79
2023/07/20 00:52:15;;;;;;;4.10;0.90;;;;;;;17.10;75.11;99719.98;109984;1277;23089;-79
2023/07/20 00:54:46;;;;;;;7.30;1.40;;;;;;;17.11;75.19;99710.48;110005;1269;22255;-79
2023/07/20 00:57:18;;;;;;;5.10;0.80;;;;;;;17.14;75.57;99705.61;109989;1274;22204;-78
2023/07/20 00:59:49;;;;;;;6.60;0.90;;;;;;;17.14;75.76;99705.09;109995;1279;22904;-80
2023/07/20 01:02:20;;;;;;;8.50;0.90;;;;;;;17.13;75.68;99698.02;110012;1271;22275;-79
2023/07/20 01:04:52;;;;;;;4.50;1.10;;;;;;;17.19;75.67;99677.73;110081;1274;22136;-79
2023/07/20 01:07:27;;;;;;;4.00;0.90;;;;;;;17.26;76.58;99669.61;110063;1274;22466;-79
2023/07/20 01:10:07;;;;;;;4.40;1.10;;;;;;;17.28;76.86;99664.09;110032;1277;22136;-79
2023/07/20 01:12:44;;;;;;;5.80;1.00;;;;;;;17.29;76.96;99681.25;110024;1274;22599;-79
2023/07/20 01:15:15;;;;;;;6.90;1.30;;;;;;;17.28;77.17;99695.52;109995;1274;23107;-79
2023/07/20 01:17:46;;;;;;;6.60;1.40;;;;;;;17.25;77.41;99704.91;109963;1274;22192;-79
2023/07/20 01:20:20;;;;;;;4.60;0.90;;;;;;;17.24;77.57;99712.02;109999;1273;22290;-79
2023/07/20 01:23:28;;;;;;;4.70;1.10;;;;;;;17.22;77.93;99720.30;110028;1277;22134;-79
2023/07/20 01:26:34;;;;;;;5.60;0.80;;;;;;;17.17;78.21;99709.23;109711;1277;23198;-79
2023/07/20 01:29:19;;;;;;;5.20;1.20;;;;;;;17.13;78.44;99712.80;109733;1281;22171;-79
2023/07/20 01:31:54;;;;;;;6.40;0.90;;;;;;;17.12;78.60;99706.51;109728;1283;22214;-79
2023/07/20 01:34:27;;;;;;;5.60;1.00;;;;;;;17.12;78.76;99706.92;109746;1280;22189;-79
2023/07/20 01:36:58;;;;;;;5.40;0.90;;;;;;;17.15;78.89;99699.65;109736;1285;22218;-80
2023/07/20 01:39:29;;;;;;;5.30;1.00;;;;;;;17.17;79.08;99694.54;109736;1285;22362;-79
2023/07/20 01:42:00;;;;;;;2.80;0.90;;;;;;;17.18;79.36;99693.27;109746;1282;22211;-79
2023/07/20 01:44:31;;;;;;;4.30;0.80;;;;;;;17.17;79.39;99695.30;109740;1274;22251;-79
2023/07/20 01:47:02;;;;;;;9.10;1.10;;;;;;;17.18;79.60;99691.70;109767;1283;22378;-79
2023/07/20 01:49:33;;;;;;;5.70;1.20;;;;;;;17.18;79.65;99690.00;109773;1283;22389;-80
2023/07/20 01:52:04;;;;;;;7.20;1.00;;;;;;;17.18;79.54;99686.46;109744;1283;22422;-80
2023/07/20 01:54:35;;;;;;;7.40;1.10;;;;;;;17.19;79.58;99681.79;109742;1285;22213;-79
2023/07/20 01:57:06;;;;;;;6.10;1.00;;;;;;;17.17;79.61;99685.25;109752;1277;22173;-80
2023/07/20 01:59:37;;;;;;;4.90;1.10;;;;;;;17.16;79.73;99681.98;109752;1280;22322;-80
2023/07/20 02:02:09;;;;;;;7.20;1.00;;;;;;;17.14;79.75;99682.69;109789;1274;22484;-79
2023/07/20 02:04:40;;;;;;;5.10;1.00;;;;;;;17.11;79.68;99685.55;109972;1280;22131;-80
2023/07/20 02:07:10;;;;;;;5.80;0.90;;;;;;;17.07;79.69;99684.28;109973;1280;23049;-80
2023/07/20 02:09:41;;;;;;;4.40;1.10;;;;;;;17.04;79.79;99685.06;110036;1277;22216;-79
2023/07/20 02:12:12;;;;;;;6.80;1.00;;;;;;;17.02;79.75;99687.77;109984;1277;22368;-79
2023/07/20 02:14:43;;;;;;;6.20;1.10;;;;;;;16.97;79.87;99687.27;109996;1275;22247;-80
2023/07/20 02:17:13;;;;;;;9.10;1.40;;;;;;;16.94;79.85;99688.23;109993;1273;22333;-80
2023/07/20 02:19:45;;;;;;;6.20;1.20;;;;;;;16.92;80.04;99692.11;110007;1280;22160;-79
2023/07/20 02:22:16;;;;;;;6.20;1.20;;;;;;;16.87;79.99;99687.88;110015;1274;22294;-80
2023/07/20 02:24:47;;;;;;;5.80;1.10;;;;;;;16.83;80.29;99687.79;110001;1280;22159;-79
2023/07/20 02:27:18;;;;;;;4.90;1.40;;;;;;;16.78;80.45;99686.52;109984;1274;22938;-80
2023/07/20 02:29:50;;;;;;;5.50;1.10;;;;;;;16.74;80.46;99684.59;110015;1275;22276;-79
2023/07/20 02:32:21;;;;;;;9.40;1.20;;;;;;;16.71;80.60;99691.25;109990;1274;22150;-79
2023/07/20 02:34:52;;;;;;;7.00;1.30;;;;;;;16.67;80.60;99690.80;110005;1280;22309;-79
2023/07/20 02:37:22;;;;;;;8.90;1.20;;;;;;;16.63;80.69;99686.24;110019;1273;22262;-79
2023/07/20 02:39:54;;;;;;;5.20;1.20;;;;;;;16.60;80.77;99687.81;110081;1274;22182;-79
2023/07/20 02:42:25;;;;;;;6.50;1.20;;;;;;;16.58;80.96;99688.37;110030;1277;22253;-79
2023/07/20 02:44:56;;;;;;;5.60;1.40;;;;;;;16.55;81.03;99694.85;110002;1280;22658;-79
2023/07/20 02:47:27;;;;;;;6.90;1.40;;;;;;;16.54;81.28;99698.30;109991;1274;23079;-79
2023/07/20 02:49:58;;;;;;;10.00;1.20;;;;;;;16.51;81.51;99701.67;109985;1280;22190;-79
2023/07/20 02:52:29;;;;;;;5.50;1.40;;;;;;;16.49;81.43;99702.09;109991;1269;22152;-80
2023/07/20 02:55:00;;;;;;;6.70;1.50;;;;;;;16.47;81.48;99703.95;109985;1274;22156;-80
2023/07/20 02:57:31;;;;;;;5.80;1.50;;;;;;;16.46;81.53;99703.00;109976;1277;22206;-80
2023/07/20 03:00:05;;;;;;;5.30;1.10;;;;;;;16.43;81.84;99700.63;109996;1277;22369;-80
2023/07/20 03:02:36;;;;;;;7.30;1.10;;;;;;;16.41;81.88;99698.65;109975;1280;22424;-79
2023/07/20 03:05:08;;;;;;;6.90;1.60;;;;;;;16.38;81.98;99697.73;110034;1274;22165;-79
2023/07/20 03:07:39;;;;;;;5.30;1.20;;;;;;;16.36;81.93;99694.98;110002;1280;22242;-79
2023/07/20 03:10:11;;;;;;;7.50;1.50;;;;;;;16.35;82.03;99691.10;109967;1273;22221;-79
2023/07/20 03:12:42;;;;;;;6.20;1.10;;;;;;;16.33;82.26;99686.98;109974;1274;22205;-79
2023/07/20 03:15:13;;;;;;;7.80;1.30;;;;;;;16.30;82.46;99690.14;109998;1280;22999;-80
2023/07/20 03:17:43;;;;;;;6.70;1.40;;;;;;;16.27;82.64;99688.70;109986;1274;22189;-79
2023/07/20 03:20:15;;;;;;;3.50;1.00;;;;;;;16.24;82.77;99692.58;109960;1275;22533;-79
2023/07/20 03:22:46;;;;;;;5.10;1.10;;;;;;;16.18;83.05;99687.94;109997;1280;22195;-79
2023/07/20 03:25:17;;;;;;;6.80;1.30;;;;;;;16.13;83.25;99691.95;109991;1277;22201;-80
2023/07/20 03:27:48;;;;;;;3.50;0.90;;;;;;;16.10;83.30;99695.40;110023;1280;22132;-79
2023/07/20 03:30:19;;;;;;;6.30;1.10;;;;;;;16.06;83.52;99695.82;110011;1276;22175;-79
2023/07/20 03:32:50;;;;;;;4.50;1.10;;;;;;;16.03;83.61;99701.08;109969;1280;22632;-80
2023/07/20 03:35:20;;;;;;;10.50;1.40;;;;;;;16.01;83.75;99697.58;109982;1273;22197;-79
2023/07/20 03:37:51;;;;;;;6.80;1.30;;;;;;;16.00;83.75;99699.33;109996;1280;22166;-80
2023/07/20 03:40:22;;;;;;;6.00;1.30;;;;;;;16.00;83.76;99706.90;110007;1277;22222;-80
2023/07/20 03:42:53;;;;;;;6.00;1.00;;;;;;;15.99;83.79;99710.08;110042;1273;22193;-80
2023/07/20 03:45:24;;;;;;;5.40;0.90;;;;;;;15.98;84.10;99707.42;109965;1274;22160;-79
2023/07/20 03:47:55;;;;;;;5.60;1.80;;;;;;;15.98;84.07;99704.50;109976;1277;22265;-79
2023/07/20 03:50:25;;;;;;;7.30;1.30;;;;;;;15.97;84.15;99705.17;109960;1280;22291;-79
2023/07/20 03:52:56;;;;;;;3.10;1.00;;;;;;;15.95;84.25;99699.43;110002;1274;22212;-79
2023/07/20 03:55:28;;;;;;;7.30;1.20;;;;;;;15.93;84.50;99703.14;109965;1277;22121;-79
2023/07/20 03:57:59;;;;;;;5.20;1.10;;;;;;;15.88;84.70;99704.31;110009;1273;22169;-79
2023/07/20 04:00:30;;;;;;;7.70;1.30;;;;;;;15.88;84.70;99708.72;109959;1277;22181;-79
2023/07/20 04:03:00;;;;;;;6.10;1.10;;;;;;;15.88;84.56;99705.85;110035;1280;22141;-79
2023/07/20 04:05:31;;;;;;;7.60;1.40;;;;;;;15.91;84.77;99703.21;109996;1280;22160;-79
2023/07/20 04:08:02;;;;;;;8.10;1.50;;;;;;;15.94;84.84;99704.14;110010;1275;22326;-80
2023/07/20 04:10:33;;;;;;;6.70;1.30;;;;;;;15.96;84.99;99697.48;110001;1280;22956;-79
2023/07/20 04:13:04;;;;;;;7.90;1.70;;;;;;;15.98;84.97;99702.61;109979;1280;22238;-79
2023/07/20 04:15:35;;;;;;;6.00;1.30;;;;;;;15.99;85.30;99707.56;109944;1278;22198;-79
2023/07/20 04:18:05;;;;;;;5.60;1.20;;;;;;;16.01;85.37;99701.52;109986;1277;22329;-79
2023/07/20 04:20:36;;;;;;;8.00;1.30;;;;;;;16.05;85.65;99694.14;109948;1277;22153;-80
2023/07/20 04:23:07;;;;;;;7.00;1.20;;;;;;;16.08;85.78;99706.38;109958;1274;22353;-78
2023/07/20 04:25:39;;;;;;;4.90;1.10;;;;;;;16.13;86.10;99711.56;109973;1280;23038;-78
2023/07/20 04:28:10;;;;;;;6.60;1.90;;;;;;;16.14;86.50;99710.97;110015;1273;23012;-79
2023/07/20 04:30:41;;;;;;;7.90;1.20;;;;;;;16.15;86.62;99714.40;110031;1277;22713;-79
2023/07/20 04:33:12;;;;;;;6.80;1.50;;;;;;;16.18;86.91;99712.21;109946;1274;23206;-79
2023/07/20 04:35:53;;;;;;;7.40;1.50;;;;;;;16.22;87.21;99714.38;109924;1280;22147;-78
2023/07/20 04:38:24;;;;;;;7.40;1.50;;;;;;;16.27;87.73;99717.52;109960;1278;22274;-78
2023/07/20 04:40:55;;;;;;;7.60;1.60;;;;;;;16.34;87.84;99715.95;109987;1280;22273;-79
2023/07/20 04:43:26;;;;;;;8.10;2.10;;;;;;;16.38;88.25;99716.11;110001;1280;22167;-79
2023/07/20 04:45:56;;;;;;;6.90;1.40;;;;;;;16.42;88.17;99722.69;109990;1274;22220;-79
2023/07/20 04:48:27;;;;;;;7.80;1.50;;;;;;;16.45;88.45;99720.73;109962;1270;22159;-80
2023/07/20 04:50:58;;;;;;;5.50;1.60;;;;;;;16.48;88.26;99721.36;109982;1280;22182;-79
2023/07/20 04:53:29;;;;;;;7.90;1.60;;;;;;;16.54;88.36;99716.61;109945;1273;22946;-79
2023/07/20 04:56:00;;;;;;;8.30;1.80;;;;;;;16.59;88.55;99730.20;109990;1269;22101;-80
2023/07/20 04:58:30;;;;;;;7.60;1.60;;;;;;;16.64;88.78;99736.54;109982;1274;22195;-79
2023/07/20 05:01:01;;;;;;;8.10;1.80;;;;;;;16.68;88.82;99740.59;109989;1277;22449;-79
2023/07/20 05:03:32;;;;;;;9.10;2.20;;;;;;;16.74;88.76;99746.55;109987;1275;22384;-79
2023/07/20 05:06:03;;;;;;;7.70;1.80;;;;;;;16.79;89.10;99746.54;109992;1277;22306;-80
2023/07/20 05:08:33;;;;;;;8.50;2.20;;;;;;;16.82;88.85;99748.95;109985;1277;22159;-79
2023/07/20 05:11:04;;;;;;;13.00;2.20;;;;;;;16.88;88.93;99748.00;109996;1280;23284;-79
2023/07/20 05:13:35;;;;;;;12.70;3.00;;;;;;;16.94;88.84;99742.89;109983;1280;22263;-79
2023/07/20 05:16:06;;;;;;;11.30;1.90;;;;;;;17.00;89.08;99742.55;109979;1277;22161;-80
2023/07/20 05:18:37;;;;;;;11.80;2.20;;;;;;;17.08;89.45;99752.02;110015;1277;22161;-80
2023/07/20 05:21:08;;;;;;;11.40;3.10;;;;;;;17.15;89.57;99757.27;109992;1280;22911;-80
2023/07/20 05:23:38;;;;;;;8.20;2.00;;;;;;;17.24;89.80;99765.45;109974;1277;22151;-79
2023/07/20 05:26:09;;;;;;;10.80;2.40;;;;;;;17.34;90.38;99766.64;109999;1270;22173;-79
2023/07/20 05:28:40;;;;;;;9.70;2.20;;;;;;;17.39;90.22;99768.24;109981;1280;22691;-79
2023/07/20 05:31:11;;;;;;;8.90;2.10;;;;;;;17.43;90.22;99773.35;110019;1277;22174;-80
2023/07/20 05:33:41;;;;;;;7.80;2.00;;;;;;;17.47;90.33;99775.20;109976;1277;22168;-80
2023/07/20 05:36:12;;;;;;;10.80;2.60;;;;;;;17.52;90.57;99779.70;109982;1278;22192;-79
2023/07/20 05:38:55;;;;;;;10.70;2.70;;;;;;;17.58;90.66;99779.29;109955;1280;22291;-80
2023/07/20 05:41:26;;;;;;;7.70;2.20;;;;;;;17.61;90.22;99781.75;109983;1280;22657;-79
2023/07/20 05:43:57;;;;;;;9.40;1.90;;;;;;;17.64;90.15;99786.58;110002;1280;22199;-80
2023/07/20 05:46:28;;;;;;;9.60;2.30;;;;;;;17.66;90.06;99789.58;109986;1280;22281;-80
2023/07/20 05:48:59;;;;;;;10.20;2.40;;;;;;;17.66;90.07;99792.19;109958;1276;22369;-79
2023/07/20 05:51:30;;;;;;;12.50;2.00;;;;;;;17.66;89.74;99792.50;109964;1280;22154;-80
2023/07/20 05:54:00;;;;;;;10.30;2.50;;;;;;;17.66;89.64;99788.61;110015;1273;22187;-80
2023/07/20 05:56:31;;;;;;;10.10;2.40;;;;;;;17.65;89.53;99784.41;109985;1274;23348;-80
2023/07/20 05:59:02;;;;;;;9.00;2.00;;;;;;;17.64;89.13;99785.49;110003;1277;22487;-79
2023/07/20 06:01:33;;;;;;;12.10;2.30;;;;;;;17.65;89.14;99784.26;110055;1277;22208;-80
2023/07/20 06:04:04;;;;;;;12.30;2.60;;;;;;;17.65;89.21;99787.73;110029;1277;22204;-80
2023/07/20 06:06:35;;;;;;;12.40;2.60;;;;;;;17.66;88.89;99789.41;110037;1277;22115;-79
2023/07/20 06:09:09;;;;;;;10.80;2.30;;;;;;;17.68;88.93;99781.39;109993;1277;22151;-80
2023/07/20 06:11:40;;;;;;;9.00;2.30;;;;;;;17.69;88.94;99778.09;109975;1278;22293;-80
2023/07/20 06:14:11;;;;;;;8.40;2.10;;;;;;;17.70;88.86;99777.13;109958;1274;22349;-80
2023/07/20 06:16:41;;;;;;;13.60;2.80;;;;;;;17.72;88.83;99786.86;110015;1265;22228;-80
2023/07/20 06:19:12;;;;;;;11.00;2.80;;;;;;;17.71;88.71;99794.16;110019;1273;22364;-80
2023/07/20 06:21:43;;;;;;;8.70;2.50;;;;;;;17.70;88.65;99794.13;109966;1280;22198;-80
2023/07/20 06:24:14;;;;;;;10.90;2.80;;;;;;;17.73;88.64;99795.88;109966;1273;22257;-79
2023/07/20 06:26:44;;;;;;;12.90;3.20;;;;;;;17.77;88.65;99792.41;109989;1279;22200;-80
2023/07/20 06:29:15;;;;;;;17.40;3.50;;;;;;;17.83;88.57;99796.38;109977;1280;23434;-81
2023/07/20 06:31:46;;;;;;;12.90;3.10;;;;;;;17.88;88.14;99800.48;110023;1278;22963;-79
2023/07/20 06:34:16;;;;;;;13.10;2.50;;;;;;;17.95;88.43;99799.02;109977;1274;22219;-80
2023/07/20 06:36:47;;;;;;;11.50;2.70;;;;;;;18.02;88.32;99800.52;109966;1280;22735;-80
2023/07/20 06:39:18;;;;;;;11.70;2.80;;;;;;;18.06;87.93;99803.61;109948;1280;22202;-79
2023/07/20 06:41:49;;;;;;;12.10;3.50;;;;;;;18.12;87.81;99807.77;109968;1280;22122;-79
2023/07/20 06:44:20;;;;;;;10.70;3.50;;;;;;;18.20;88.20;99810.27;109930;1280;22170;-79
2023/07/20 06:46:50;;;;;;;11.70;3.10;;;;;;;18.31;88.15;99813.92;109948;1280;22897;-80
2023/07/20 06:49:28;;;;;;;11.20;3.40;;;;;;;18.40;87.89;99814.79;109956;1270;22178;-79
2023/07/20 06:51:59;;;;;;;16.10;3.00;;;;;;;18.43;87.05;99814.11;108578;1280;22557;-79
2023/07/20 06:54:30;;;;;;;9.30;3.00;;;;;;;18.47;86.80;99813.84;108019;1273;22553;-79
2023/07/20 06:57:00;;;;;;;11.60;3.40;;;;;;;18.52;86.48;99815.55;108040;1274;22541;-79
2023/07/20 06:59:31;;;;;;;10.00;2.30;;;;;;;18.58;86.18;99813.88;107933;1273;22930;-79
2023/07/20 07:02:02;;;;;;;10.00;2.40;;;;;;;18.66;86.77;99819.38;108019;1280;22521;-80
2023/07/20 07:04:32;;;;;;;9.20;2.50;;;;;;;18.74;86.38;99818.17;107948;1277;25282;-79
2023/07/20 07:07:04;;;;;;;14.50;2.30;;;;;;;18.79;85.96;99821.30;108054;1271;22584;-79
2023/07/20 07:09:35;;;;;;;9.50;2.00;;;;;;;18.85;84.96;99817.77;108000;1276;25249;-79
2023/07/20 07:12:07;;;;;;;7.70;1.90;;;;;;;18.90;85.32;99815.79;108093;1279;23126;-79
2023/07/20 07:14:38;;;;;;;9.80;2.20;;;;;;;18.97;84.58;99814.43;107933;1267;22527;-79
2023/07/20 07:17:09;;;;;;;10.20;1.80;;;;;;;19.06;84.24;99821.29;107831;1280;22526;-79
2023/07/20 07:19:40;;;;;;;10.90;2.10;;;;;;;19.04;83.39;99817.54;107905;1280;22488;-79
2023/07/20 07:22:12;;;;;;;7.00;2.10;;;;;;;19.06;83.40;99822.31;107979;1257;24298;-79
2023/07/20 07:24:42;;;;;;;8.00;1.90;;;;;;;19.08;83.29;99823.61;107917;1280;26315;-79
2023/07/20 07:27:15;;;;;;;9.90;2.10;;;;;;;19.15;83.36;99816.72;108046;1277;22521;-79
2023/07/20 07:29:46;;;;;;;13.50;2.60;;;;;;;19.25;82.98;99819.98;108033;1280;22615;-79
2023/07/20 07:32:17;;;;;;;7.90;1.70;;;;;;;19.35;82.33;99817.98;107504;1275;23832;-79
2023/07/20 07:34:48;;;;;;;12.00;2.20;;;;;;;19.43;81.93;99816.94;107553;1280;22524;-79
2023/07/20 07:37:20;;;;;;;8.70;1.70;;;;;;;19.43;81.26;99816.27;107498;1280;25428;-79
2023/07/20 07:39:51;;;;;;;10.20;2.00;;;;;;;19.42;80.71;99819.91;107551;1280;25249;-79
2023/07/20 07:42:22;;;;;;;9.80;1.80;;;;;;;19.46;80.77;99817.27;107501;1274;22697;-79
2023/07/20 07:44:52;;;;;;;9.90;2.00;;;;;;;19.57;80.82;99815.66;107542;1277;22535;-79
2023/07/20 07:47:23;;;;;;;10.60;1.70;;;;;;;19.66;80.54;99816.16;107461;1273;22554;-79
2023/07/20 07:49:54;;;;;;;9.00;1.80;;;;;;;19.72;80.13;99816.32;107504;1273;24676;-79
2023/07/20 07:52:24;;;;;;;8.10;2.40;;;;;;;19.71;79.65;99816.23;107578;1274;22530;-79
2023/07/20 07:54:55;;;;;;;9.20;2.40;;;;;;;19.71;79.33;99822.27;107527;1276;23834;-78
2023/07/20 07:57:26;;;;;;;14.20;3.00;;;;;;;19.66;78.93;99821.88;107529;1267;22534;-78
2023/07/20 07:59:57;;;;;;;9.90;2.70;;;;;;;19.63;78.87;99823.38;107596;1280;22752;-78
2023/07/20 08:02:28;;;;;;;14.80;2.10;;;;;;;19.62;78.83;99825.21;107727;1270;22504;-79
2023/07/20 08:05:00;;;;;;;8.50;2.10;;;;;;;19.61;78.69;99831.28;107591;1280;23343;-79
2023/07/20 08:07:31;;;;;;;8.50;2.00;;;;;;;19.58;78.14;99826.54;107440;1280;22546;-78
2023/07/20 08:10:02;;;;;;;6.10;1.70;;;;;;;19.55;78.19;99826.12;107806;1276;22540;-79
2023/07/20 08:12:33;;;;;;;8.60;2.50;;;;;;;19.57;78.02;99830.60;108015;1277;24218;-79
2023/07/20 08:15:05;;;;;;;8.10;1.80;;;;;;;19.60;77.36;99837.20;108062;1274;22529;-79
2023/07/20 08:17:35;;;;;;;7.30;1.90;;;;;;;19.59;76.81;99835.80;107989;1280;22705;-77
2023/07/20 08:20:09;;;;;;;6.70;1.60;;;;;;;19.55;76.72;99838.02;107530;1277;22614;-78
2023/07/20 08:22:40;;;;;;;6.20;1.50;;;;;;;19.52;76.78;99842.25;109991;1280;22239;-79
2023/07/20 08:25:11;;;;;;;6.70;1.40;;;;;;;19.48;76.82;99845.31;109926;1279;22249;-79
2023/07/20 08:27:42;;;;;;;7.10;1.50;;;;;;;19.49;77.01;99844.42;109974;1279;22199;-78
2023/07/20 08:30:13;;;;;;;6.60;1.60;;;;;;;19.52;76.80;99843.08;109990;1273;22398;-81
2023/07/20 08:32:44;;;;;;;9.10;1.90;;;;;;;19.54;76.42;99842.08;109967;1274;22395;-79
2023/07/20 08:35:15;;;;;;;6.80;1.70;;;;;;;19.59;76.09;99835.03;109968;1280;23413;-78
2023/07/20 08:37:46;;;;;;;10.10;2.30;;;;;;;19.66;76.38;99834.27;109978;1280;22184;-78
2023/07/20 08:40:18;;;;;;;5.70;1.40;;;;;;;19.76;75.88;99834.14;109978;1274;22745;-78
2023/07/20 08:42:50;;;;;;;8.80;1.40;;;;;;;19.82;75.27;99830.42;109928;1276;22155;-78
2023/07/20 08:45:21;;;;;;;6.90;1.80;;;;;;;19.90;74.41;99831.82;109979;1273;22184;-78
2023/07/20 08:47:53;;;;;;;7.00;1.30;;;;;;;20.07;74.88;99827.57;109962;1280;22961;-81
2023/07/20 08:50:25;;;;;;;5.00;1.10;;;;;;;20.28;74.18;99836.44;109981;1272;22134;-80
2023/07/20 08:52:57;;;;;;;5.60;0.90;;;;;;;20.34;72.53;99834.72;109982;1280;22378;-79
2023/07/20 08:55:29;;;;;;;6.40;0.90;;;;;;;20.37;72.31;99834.73;109993;1277;22152;-79
2023/07/20 08:58:01;;;;;;;2.70;0.70;;;;;;;20.38;71.78;99842.19;109995;1274;22836;-79
2023/07/20 09:00:33;;;;;;;3.00;0.80;;;;;;;20.35;71.27;99841.79;109988;1274;22224;-80
2023/07/20 09:03:05;;;;;;;3.80;0.70;;;;;;;20.31;70.92;99847.73;109981;1273;23161;-79
2023/07/20 09:05:37;;;;;;;2.00;0.60;;;;;;;20.27;70.96;99839.66;109983;1273;22154;-80
2023/07/20 09:08:07;;;;;;;4.80;1.00;;;;;;;20.26;70.81;99844.52;109995;1274;22248;-82
2023/07/20 09:10:38;;;;;;;4.60;0.70;;;;;;;20.30;70.32;99844.05;109960;1280;22221;-81
2023/07/20 09:13:09;;;;;;;3.30;0.60;;;;;;;20.37;69.90;99842.79;109959;1274;22347;-81
2023/07/20 09:15:40;;;;;;;3.30;0.70;;;;;;;20.47;69.76;99836.27;109952;1277;22193;-80
2023/07/20 09:18:10;;;;;;;5.00;1.00;;;;;;;20.57;69.75;99838.45;109974;1274;22230;-81
2023/07/20 09:20:42;;;;;;;1.90;0.60;;;;;;;20.69;68.61;99832.13;110020;1266;22193;-81
2023/07/20 09:23:13;;;;;;;4.00;0.70;;;;;;;20.74;68.46;99828.38;109970;1272;22343;-81
2023/07/20 09:25:45;;;;;;;3.80;0.70;;;;;;;20.79;67.60;99838.39;110002;1280;22139;-82
2023/07/20 09:28:16;;;;;;;2.80;0.40;;;;;;;20.79;67.25;99839.91;110006;1280;22206;-84
2023/07/20 09:30:47;;;;;;;3.90;0.70;;;;;;;20.70;67.60;99837.16;110045;1269;22137;-83
2023/07/20 09:33:23;;;;;;;2.60;0.70;;;;;;;20.59;68.48;99837.79;110096;1273;23052;-83
2023/07/20 09:35:54;;;;;;;2.30;0.60;;;;;;;20.48;69.07;99840.81;110102;1273;22386;-83
2023/07/20 09:38:27;;;;;;;3.00;0.80;;;;;;;20.33;69.09;99842.42;109972;1273;22207;-83
2023/07/20 09:40:58;;;;;;;1.80;0.50;;;;;;;20.25;69.22;99842.25;109979;1280;23417;-83
2023/07/20 09:43:31;;;;;;;3.00;0.60;;;;;;;20.14;68.84;99839.60;110021;1280;22158;-82
2023/07/20 09:46:02;;;;;;;6.20;0.80;;;;;;;20.07;69.04;99839.45;109991;1276;22957;-82
2023/07/20 09:48:34;;;;;;;3.80;0.80;;;;;;;20.09;69.68;99835.86;110011;1280;22245;-82
2023/07/20 09:51:07;;;;;;;7.10;1.00;;;;;;;20.21;70.10;99833.55;110010;1280;23086;-83
2023/07/20 09:53:38;;;;;;;4.50;0.90;;;;;;;20.38;69.91;99830.88;109998;1274;22182;-82
2023/07/20 09:56:11;;;;;;;4.30;0.90;;;;;;;20.57;69.32;99831.16;109994;1273;22320;-82
2023/07/20 09:58:42;;;;;;;3.00;0.80;;;;;;;20.71;68.28;99826.81;109969;1280;22279;-83
2023/07/20 10:01:17;;;;;;;5.90;1.20;;;;;;;20.81;67.69;99822.85;109991;1274;22169;-83
2023/07/20 10:03:50;;;;;;;2.00;0.70;;;;;;;20.90;66.82;99822.06;109973;1280;22194;-83
2023/07/20 10:06:24;;;;;;;2.60;0.60;;;;;;;20.95;65.98;99823.67;109978;1279;22178;-83
2023/07/20 10:09:02;;;;;;;2.80;0.50;;;;;;;21.08;65.01;99821.88;109934;1274;22250;-82
2023/07/20 10:11:36;;;;;;;4.00;0.70;;;;;;;21.22;65.20;99824.02;109977;1273;22996;-82
2023/07/20 10:14:11;;;;;;;1.20;0.50;;;;;;;21.33;63.80;99823.17;109981;1273;22376;-82
2023/07/20 10:16:52;;;;;;;3.60;0.50;;;;;;;21.36;63.21;99821.98;109997;1280;22551;-82
2023/07/20 10:19:28;;;;;;;2.50;0.60;;;;;;;21.42;62.89;99814.88;109969;1277;22227;-82
2023/07/20 10:22:02;;;;;;;3.30;0.60;;;;;;;21.49;62.16;99812.55;109981;1273;22883;-82
2023/07/20 10:24:35;;;;;;;3.50;0.60;;;;;;;21.54;61.70;99812.89;109961;1274;22208;-80
2023/07/20 10:27:07;;;;;;;2.20;0.70;;;;;;;21.58;61.23;99809.76;110015;1276;22302;-81
2023/07/20 10:29:39;;;;;;;2.40;0.50;;;;;;;21.68;61.23;99809.24;109986;1273;22890;-79
2023/07/20 10:32:11;;;;;;;1.70;0.60;;;;;;;21.81;60.70;99800.51;109987;1273;22172;-80
2023/07/20 10:34:42;;;;;;;2.90;0.60;;;;;;;21.89;60.16;99803.79;109988;1280;22907;-81
2023/07/20 10:37:32;;;;;;;3.20;0.60;;;;;;;21.98;59.58;99807.31;109991;1273;22993;-79
2023/07/20 10:40:27;;;;;;;2.80;0.60;;;;;;;22.08;59.30;99804.42;109947;1267;22202;-79
2023/07/20 10:43:03;;;;;;;3.30;0.70;;;;;;;22.19;58.61;99808.55;109967;1276;22881;-80
2023/07/20 10:45:40;;;;;;;2.60;0.50;;;;;;;22.19;57.87;99808.28;109980;1280;22203;-79
2023/07/20 10:48:19;;;;;;;3.60;0.40;;;;;;;22.20;57.76;99799.67;109978;1273;22920;-79
2023/07/20 10:51:15;;;;;;;2.70;0.30;;;;;;;22.29;57.29;99803.01;109991;1272;23050;-79
2023/07/20 10:53:45;;;;;;;1.50;0.40;;;;;;;22.44;56.18;99797.70;109986;1273;22208;-80
2023/07/20 10:56:21;;;;;;;3.50;0.40;;;;;;;22.57;55.97;99791.08;109992;1273;22354;-79
2023/07/20 10:58:58;;;;;;;3.80;0.20;;;;;;;22.76;55.33;99791.76;109966;1280;22379;-79
2023/07/20 11:01:32;;;;;;;1.60;0.30;;;;;;;22.84;54.90;99782.58;109969;1280;22625;-80
2023/07/20 11:04:09;;;;;;;3.20;0.40;;;;;;;22.95;54.76;99784.95;109972;1280;23071;-80
2023/07/20 11:06:43;;;;;;;2.40;0.30;;;;;;;23.06;54.38;99784.23;109966;1280;22174;-80
2023/07/20 11:09:15;;;;;;;4.20;0.40;;;;;;;23.11;53.76;99781.23;109984;1273;22761;-79
2023/07/20 11:11:48;;;;;;;1.50;0.40;;;;;;;23.09;53.74;99785.91;109965;1273;23011;-79
2023/07/20 11:14:26;;;;;;;2.70;0.30;;;;;;;23.14;53.58;99779.57;109982;1273;23072;-80
2023/07/20 11:17:14;;;;;;;1.80;0.60;;;;;;;23.23;53.11;99776.08;105893;1280;5385932;-80
2023/07/20 11:19:48;;;;;;;3.40;0.50;;;;;;;23.31;51.48;99770.08;109962;1280;22209;-79
2023/07/20 11:22:20;;;;;;;3.80;0.40;;;;;;;23.37;52.10;99774.28;110010;1274;22317;-80
2023/07/20 11:24:51;;;;;;;1.40;0.30;;;;;;;23.46;51.64;99772.25;109984;1276;22138;-80
2023/07/20 11:27:23;;;;;;;2.30;0.50;;;;;;;23.55;51.50;99774.64;109946;1276;22183;-80
2023/07/20 11:29:54;;;;;;;2.10;0.50;;;;;;;23.62;50.92;99767.23;109992;1273;22136;-79
2023/07/20 11:32:25;;;;;;;3.50;0.50;;;;;;;23.65;50.45;99767.35;109978;1274;23071;-79
2023/07/20 11:34:55;;;;;;;1.80;0.40;;;;;;;23.69;50.39;99766.71;110002;1273;22936;-79
2023/07/20 11:37:27;;;;;;;1.30;0.30;;;;;;;23.77;50.34;99767.67;109980;1272;22321;-80
2023/07/20 11:39:59;;;;;;;5.10;0.40;;;;;;;23.84;49.59;99770.58;109977;1273;22155;-79
2023/07/20 11:42:30;;;;;;;4.60;0.70;;;;;;;23.78;48.88;99786.85;109988;1280;22198;-79
2023/07/20 11:45:04;;;;;;;4.30;0.40;;;;;;;23.53;50.10;99823.73;110000;1273;22240;-80
2023/07/20 11:47:41;;;;;;;3.40;0.50;;;;;;;22.66;53.58;99817.14;110002;1277;22132;-80